Penaforte, Brazil
Current Conditions -  °F | °C
As of 2:00 PM on Friday 31 Oct 2014 (Local Time) from SBJU Reporting Station
Scattered Clouds Scattered Clouds  
Wind Chill: 97°   Ceiling: Unl
Heat Index: 97°   Visibility: 6mi
Dew Point: 59°   Wind: 7mph
Humidity: 28%   Direction: 130°SE
Pressure: 29.94"   Gusts: NA
Location:  7.83°S, 39.08°W
Report Text: SBJU 311700Z 13006KT 9999 SCT022 36/15 Q1014
Loading
Personal Weather Stations






























Interactive Weather Map
Tropical Storm Tracking
New forecast layout! Learn more

10-Day Weather Forecast

Advertisements
Track Severe Weather on mobile